createdAt,value
2023-04-06T00:00:55.115Z,11.05
2023-04-06T00:03:21.910Z,11.10
2023-04-06T00:05:49.458Z,11.50
2023-04-06T00:08:16.351Z,11.68
2023-04-06T00:10:43.271Z,12.13
2023-04-06T00:13:10.114Z,12.93
2023-04-06T00:15:36.941Z,13.40
2023-04-06T00:18:04.399Z,12.20
2023-04-06T00:20:31.330Z,12.93
2023-04-06T00:22:58.056Z,13.75
2023-04-06T00:25:24.906Z,12.77
2023-04-06T00:27:51.597Z,13.75
2023-04-06T00:30:18.814Z,13.20
2023-04-06T00:32:45.816Z,14.80
2023-04-06T00:35:12.584Z,14.07
2023-04-06T00:37:39.402Z,14.75
2023-04-06T00:40:06.969Z,14.77
2023-04-06T00:42:33.925Z,14.18
2023-04-06T00:45:02.317Z,14.35
2023-04-06T00:47:29.730Z,13.52
2023-04-06T00:49:57.768Z,14.55
2023-04-06T00:52:24.463Z,14.85
2023-04-06T00:54:52.450Z,13.85
2023-04-06T00:57:20.740Z,14.43
2023-04-06T00:59:54.494Z,14.63
2023-04-06T01:02:21.775Z,13.40
2023-04-06T01:04:52.616Z,13.55
2023-04-06T01:07:31.304Z,13.32
2023-04-06T01:10:28.858Z,13.05
2023-04-06T01:13:10.345Z,12.65
2023-04-06T01:15:56.112Z,12.25
2023-04-06T01:18:31.113Z,13.00
2023-04-06T01:21:16.645Z,12.73
2023-04-06T01:23:58.310Z,13.40
2023-04-06T01:26:33.610Z,12.80
2023-04-06T01:29:02.409Z,13.20
2023-04-06T01:31:30.734Z,13.85
2023-04-06T01:33:58.158Z,13.15
2023-04-06T01:36:26.483Z,12.70
2023-04-06T01:39:05.621Z,12.70
2023-04-06T01:41:36.638Z,13.80
2023-04-06T01:44:03.693Z,12.90
2023-04-06T01:51:44.944Z,11.73
2023-04-06T01:54:13.764Z,11.40
2023-04-06T01:56:53.570Z,12.88
2023-04-06T01:59:33.229Z,11.73
2023-04-06T02:02:04.354Z,12.27
2023-04-06T02:04:32.666Z,12.20
2023-04-06T02:07:08.794Z,12.63
2023-04-06T02:09:35.932Z,11.75
2023-04-06T02:12:04.289Z,11.85
2023-04-06T02:14:33.949Z,11.70
2023-04-06T02:17:01.175Z,11.73
2023-04-06T02:19:28.968Z,12.07
2023-04-06T02:21:55.715Z,12.47
2023-04-06T02:24:23.402Z,11.50
2023-04-06T02:26:50.381Z,11.98
2023-04-06T02:29:17.336Z,11.13
2023-04-06T02:31:44.290Z,11.00
2023-04-06T02:34:13.079Z,11.63
2023-04-06T02:36:46.416Z,11.80
2023-04-06T02:39:14.990Z,12.70
2023-04-06T02:41:41.733Z,11.88
2023-04-06T02:44:09.866Z,11.60
2023-04-06T02:46:43.108Z,10.93
2023-04-06T02:49:10.243Z,11.23
2023-04-06T02:51:37.475Z,11.95
2023-04-06T02:54:24.140Z,12.45
2023-04-06T02:56:51.060Z,11.00
2023-04-06T02:59:18.464Z,11.50
2023-04-06T03:01:55.361Z,10.70
2023-04-06T03:04:23.814Z,11.02
2023-04-06T03:06:51.746Z,10.70
2023-04-06T03:09:29.334Z,11.77
2023-04-06T03:11:56.255Z,10.98
2023-04-06T03:14:24.509Z,11.30
2023-04-06T03:16:51.425Z,11.15
2023-04-06T03:19:21.691Z,11.00
2023-04-06T03:21:49.380Z,10.50
2023-04-06T03:26:44.062Z,10.23
2023-04-06T03:29:10.815Z,10.80
2023-04-06T03:31:37.817Z,9.55
2023-04-06T03:34:43.399Z,11.23
2023-04-06T03:37:11.017Z,11.20
2023-04-06T03:39:45.020Z,11.57
2023-04-06T03:42:17.712Z,10.32
2023-04-06T03:44:52.840Z,11.32
2023-04-06T03:47:20.060Z,10.82
2023-04-06T03:49:46.830Z,11.50
2023-04-06T03:52:15.789Z,11.38
2023-04-06T03:54:42.542Z,11.20
2023-04-06T03:57:11.141Z,10.00
2023-04-06T03:59:37.820Z,10.10
2023-04-06T04:02:04.668Z,11.05
2023-04-06T04:04:31.395Z,9.93
2023-04-06T04:06:58.522Z,11.83
2023-04-06T04:09:26.333Z,11.65
2023-04-06T04:11:53.925Z,11.43
2023-04-06T04:14:21.600Z,11.30
2023-04-06T04:16:48.352Z,11.15
2023-04-06T04:19:15.032Z,7.78
2023-04-06T04:21:46.294Z,9.93
2023-04-06T04:24:16.500Z,9.27
2023-04-06T04:26:43.345Z,10.15
2023-04-06T04:29:10.821Z,10.82
2023-04-06T04:31:38.665Z,9.85
2023-04-06T04:34:12.339Z,10.65
2023-04-06T04:36:39.333Z,10.88
2023-04-06T04:39:09.724Z,9.05
2023-04-06T04:41:41.544Z,9.98
2023-04-06T04:44:10.602Z,9.10
2023-04-06T04:46:37.329Z,9.98
2023-04-06T04:49:05.475Z,10.88
2023-04-06T04:51:33.719Z,9.70
2023-04-06T04:54:16.948Z,10.05
2023-04-06T04:56:43.878Z,10.18
2023-04-06T04:59:24.173Z,8.93
2023-04-06T05:01:57.627Z,9.90
2023-04-06T05:04:33.214Z,9.70
2023-04-06T05:07:11.814Z,9.65
2023-04-06T05:09:40.979Z,10.98
2023-04-06T05:12:08.362Z,10.73
2023-04-06T05:14:42.885Z,10.20
2023-04-06T05:17:14.691Z,10.35
2023-04-06T05:19:41.692Z,9.88
2023-04-06T05:22:09.737Z,10.82
2023-04-06T05:24:41.100Z,10.40
2023-04-06T05:27:08.878Z,10.07
2023-04-06T05:29:35.687Z,9.80
2023-04-06T05:32:03.147Z,11.63
2023-04-06T05:34:30.442Z,11.35
2023-04-06T05:36:58.411Z,13.45
2023-04-06T05:39:26.644Z,13.95
2023-04-06T05:41:54.407Z,13.93
2023-04-06T05:44:31.801Z,10.75
2023-04-06T05:47:07.329Z,11.32
2023-04-06T05:49:35.752Z,11.02
2023-04-06T05:54:30.553Z,9.80
2023-04-06T05:57:03.174Z,9.98
2023-04-06T05:59:32.366Z,11.23
2023-04-06T06:01:59.319Z,11.98
2023-04-06T06:04:26.422Z,10.77
2023-04-06T06:06:54.781Z,10.13
2023-04-06T06:09:27.877Z,10.25
2023-04-06T06:12:15.111Z,11.20
2023-04-06T06:14:42.150Z,11.97
2023-04-06T06:17:09.751Z,10.88
2023-04-06T06:19:37.269Z,10.05
2023-04-06T06:22:07.370Z,10.30
2023-04-06T06:24:37.961Z,11.18
2023-04-06T06:27:05.130Z,11.38
2023-04-06T06:29:33.986Z,10.93
2023-04-06T06:32:01.298Z,11.48
2023-04-06T06:34:28.309Z,10.57
2023-04-06T06:36:57.710Z,11.90
2023-04-06T06:39:24.754Z,10.52
2023-04-06T06:41:51.620Z,10.50
2023-04-06T06:44:22.873Z,10.82
2023-04-06T06:46:50.754Z,12.60
2023-04-06T06:49:19.490Z,12.90
2023-04-06T06:51:47.494Z,10.63
2023-04-06T06:54:14.232Z,10.60
2023-04-06T06:56:40.956Z,9.95
2023-04-06T06:59:07.683Z,10.40
2023-04-06T07:01:36.157Z,10.70
2023-04-06T07:04:03.038Z,10.07
2023-04-06T07:06:29.960Z,10.63
2023-04-06T07:08:56.745Z,9.48
2023-04-06T07:11:24.259Z,10.02
2023-04-06T07:13:51.105Z,10.25
2023-04-06T07:16:18.136Z,10.17
2023-04-06T07:18:44.958Z,9.75
2023-04-06T07:21:11.817Z,10.10
2023-04-06T07:23:39.087Z,10.33
2023-04-06T07:26:07.122Z,10.27
2023-04-06T07:28:33.921Z,8.98
2023-04-06T07:31:02.066Z,10.15
2023-04-06T07:33:30.958Z,10.48
2023-04-06T07:35:59.497Z,10.88
2023-04-06T07:38:26.494Z,10.70
2023-04-06T07:40:53.675Z,9.10
2023-04-06T07:43:20.421Z,10.13
2023-04-06T07:45:47.303Z,10.02
2023-04-06T07:48:17.192Z,10.25
2023-04-06T07:53:11.444Z,10.27
2023-04-06T07:55:39.216Z,9.80
2023-04-06T07:58:06.064Z,10.13
2023-04-06T08:00:32.862Z,10.27
2023-04-06T08:02:59.693Z,10.55
2023-04-06T08:05:26.810Z,10.70
2023-04-06T08:07:53.712Z,9.00
2023-04-06T08:10:20.621Z,8.55
2023-04-06T08:12:47.302Z,8.45
2023-04-06T08:15:14.207Z,9.70
2023-04-06T08:17:40.906Z,9.85
2023-04-06T08:20:07.945Z,9.13
2023-04-06T08:22:34.730Z,7.97
2023-04-06T08:25:01.459Z,10.15
2023-04-06T08:27:28.211Z,9.50
2023-04-06T08:29:54.928Z,5.60
2023-04-06T08:32:21.664Z,9.73
2023-04-06T08:34:48.425Z,10.13
2023-04-06T08:37:15.323Z,9.43
2023-04-06T08:39:42.030Z,8.68
2023-04-06T08:42:17.614Z,10.60
2023-04-06T08:44:45.386Z,8.88
2023-04-06T08:47:12.445Z,10.32
2023-04-06T08:49:42.127Z,10.90
2023-04-06T08:52:09.247Z,10.45
2023-04-06T08:54:35.996Z,11.53
2023-04-06T08:57:04.274Z,9.57
2023-04-06T08:59:32.250Z,9.02
2023-04-06T09:02:01.499Z,9.63
2023-04-06T09:04:28.506Z,9.00
2023-04-06T09:06:55.412Z,9.40
2023-04-06T09:09:24.677Z,8.45
2023-04-06T09:11:53.062Z,8.77
2023-04-06T09:14:39.905Z,8.18
2023-04-06T09:17:07.260Z,7.90
2023-04-06T10:16:41.810Z,7.70
2023-04-06T10:19:22.311Z,6.68
2023-04-06T10:21:54.575Z,6.88
2023-04-06T10:24:21.417Z,5.22
2023-04-06T10:27:04.595Z,7.10
2023-04-06T10:29:52.167Z,7.20
2023-04-06T10:34:45.634Z,5.53
2023-04-06T10:37:17.345Z,4.78
2023-04-06T10:39:59.372Z,5.30
2023-04-06T10:42:26.916Z,6.63
2023-04-06T10:44:53.738Z,6.72
2023-04-06T10:47:20.521Z,6.28
2023-04-06T10:49:47.363Z,7.32
2023-04-06T10:52:14.246Z,7.90
2023-04-06T10:54:45.324Z,7.38
2023-04-06T10:57:13.546Z,8.00
2023-04-06T10:59:44.449Z,7.43
2023-04-06T11:02:21.052Z,8.05
2023-04-06T11:04:58.673Z,6.78
2023-04-06T11:07:30.584Z,6.57
2023-04-06T11:10:13.434Z,7.57
2023-04-06T11:12:43.924Z,4.72
2023-04-06T11:15:11.072Z,5.20
2023-04-06T11:17:38.327Z,7.05
2023-04-06T11:20:10.797Z,6.38
2023-04-06T11:22:37.508Z,6.97
2023-04-06T11:27:35.975Z,7.05
2023-04-06T11:32:30.567Z,6.53
2023-04-06T11:34:59.164Z,6.13
2023-04-06T11:37:28.508Z,5.00
2023-04-06T11:39:56.350Z,6.43
2023-04-06T11:42:27.792Z,7.43
2023-04-06T11:44:56.135Z,6.68
2023-04-06T11:47:29.669Z,8.93
2023-04-06T11:49:56.821Z,7.32
2023-04-06T11:52:25.293Z,6.03
2023-04-06T11:54:53.874Z,6.68
2023-04-06T11:57:22.546Z,5.22
2023-04-06T11:59:49.316Z,6.18
2023-04-06T12:02:16.330Z,7.25
2023-04-06T12:04:43.157Z,7.32
2023-04-06T12:07:09.979Z,5.43
2023-04-06T12:09:37.864Z,6.35
2023-04-06T12:14:31.839Z,7.97
2023-04-06T12:16:59.555Z,6.05
2023-04-06T12:19:27.022Z,6.88
2023-04-06T12:21:55.573Z,7.28
2023-04-06T12:24:22.550Z,6.57
2023-04-06T12:26:51.662Z,5.97
2023-04-06T12:29:21.327Z,5.53
2023-04-06T12:31:48.107Z,7.37
2023-04-06T12:34:14.890Z,6.30
2023-04-06T12:36:41.698Z,6.88
2023-04-06T12:39:08.441Z,5.05
2023-04-06T12:41:35.539Z,6.68
2023-04-06T12:44:02.995Z,5.75
2023-04-06T12:46:33.623Z,7.25
2023-04-06T12:49:00.480Z,9.20
2023-04-06T12:51:30.428Z,5.22
2023-04-06T12:53:57.270Z,8.60
2023-04-06T12:56:24.197Z,7.80
2023-04-06T12:58:54.121Z,8.85
2023-04-06T13:01:21.339Z,7.43
2023-04-06T13:03:48.189Z,8.30
2023-04-06T13:06:16.281Z,5.45
2023-04-06T13:08:43.703Z,7.65
2023-04-06T13:11:10.641Z,7.97
2023-04-06T13:13:38.178Z,6.60
2023-04-06T13:16:08.139Z,4.82
2023-04-06T13:18:36.450Z,5.07
2023-04-06T13:21:03.490Z,7.80
2023-04-06T13:23:30.343Z,7.80
2023-04-06T13:26:05.481Z,6.88
2023-04-06T13:28:33.461Z,7.82
2023-04-06T13:33:29.355Z,5.50
2023-04-06T13:38:25.008Z,5.70
2023-04-06T13:40:52.720Z,8.30
2023-04-06T13:43:21.262Z,7.60
2023-04-06T13:45:53.372Z,7.95
2023-04-06T13:48:20.341Z,8.38
2023-04-06T13:50:47.318Z,6.22
2023-04-06T13:53:14.476Z,7.97
2023-04-06T13:55:41.829Z,7.25
2023-04-06T13:58:08.553Z,6.95
2023-04-06T14:00:35.882Z,6.88
2023-04-06T14:03:02.701Z,9.13
2023-04-06T14:05:34.012Z,8.25
2023-04-06T14:08:00.994Z,7.45
2023-04-06T14:10:28.952Z,6.10
2023-04-06T14:12:56.794Z,7.45
2023-04-06T14:17:52.554Z,6.03
2023-04-06T14:20:20.114Z,7.75
2023-04-06T14:22:47.603Z,7.78
2023-04-06T14:25:14.720Z,9.55
2023-04-06T14:27:41.502Z,9.32
2023-04-06T14:30:09.256Z,7.03
2023-04-06T14:32:37.621Z,9.68
2023-04-06T14:35:08.195Z,9.02
2023-04-06T14:37:35.348Z,8.18
2023-04-06T14:40:02.309Z,9.33
2023-04-06T14:42:28.958Z,7.53
2023-04-06T14:44:55.714Z,9.52
2023-04-06T14:47:22.801Z,9.95
2023-04-06T14:49:53.482Z,6.75
2023-04-06T14:52:20.571Z,7.43
2023-04-06T14:54:47.338Z,8.25
2023-04-06T14:57:14.217Z,9.93
2023-04-06T14:59:40.981Z,8.32
2023-04-06T15:02:08.221Z,9.32
2023-04-06T15:04:36.508Z,9.68
2023-04-06T15:07:03.316Z,10.20
2023-04-06T15:09:30.347Z,10.82
2023-04-06T15:11:57.541Z,8.10
2023-04-06T15:14:24.224Z,10.73
2023-04-06T15:16:50.940Z,11.98
2023-04-06T15:19:17.653Z,10.63
2023-04-06T15:21:44.370Z,9.02
2023-04-06T15:24:11.234Z,10.80
2023-04-06T15:26:37.967Z,15.68
2023-04-06T15:29:05.156Z,10.73
2023-04-06T15:31:37.663Z,11.60
2023-04-06T15:34:06.493Z,14.57
2023-04-06T15:36:33.968Z,13.23
2023-04-06T15:39:01.039Z,9.82
2023-04-06T15:41:28.488Z,12.63
2023-04-06T15:43:55.786Z,13.80
2023-04-06T15:46:24.266Z,13.48
2023-04-06T15:48:51.080Z,18.15
2023-04-06T15:51:17.989Z,11.65
2023-04-06T15:53:45.505Z,12.35
2023-04-06T15:56:14.416Z,14.02
2023-04-06T15:58:42.138Z,11.95
2023-04-06T16:01:19.296Z,13.35
2023-04-06T16:03:46.645Z,11.93
2023-04-06T16:06:13.463Z,9.98
2023-04-06T16:08:41.052Z,7.47
2023-04-06T16:11:08.062Z,7.30
2023-04-06T16:13:35.641Z,12.88
2023-04-06T16:16:04.062Z,13.73
2023-04-06T16:18:32.461Z,12.70
2023-04-06T16:21:00.369Z,11.52
2023-04-06T16:23:27.339Z,13.18
2023-04-06T16:25:57.899Z,12.43
2023-04-06T16:28:25.517Z,12.93
2023-04-06T16:30:53.096Z,14.32
2023-04-06T16:33:19.883Z,12.60
2023-04-06T16:35:47.175Z,10.48
2023-04-06T16:38:14.977Z,12.40
2023-04-06T16:43:09.902Z,5.73
2023-04-06T16:48:03.872Z,9.65
2023-04-06T16:50:30.859Z,10.75
2023-04-06T16:52:57.723Z,11.57
2023-04-06T16:55:24.405Z,10.60
2023-04-06T16:57:55.370Z,12.35
2023-04-06T17:00:22.350Z,11.07
2023-04-06T17:02:49.316Z,13.23
2023-04-06T17:05:18.173Z,10.13
2023-04-06T17:07:48.918Z,12.73
2023-04-06T17:10:17.595Z,12.40
2023-04-06T17:12:46.752Z,10.93
2023-04-06T17:15:14.390Z,11.85
2023-04-06T17:17:44.737Z,11.98
2023-04-06T17:20:11.500Z,10.10
2023-04-06T17:22:38.221Z,13.60
2023-04-06T17:25:08.314Z,10.65
2023-04-06T17:27:35.475Z,12.35
2023-04-06T17:30:06.428Z,12.23
2023-04-06T17:32:34.346Z,10.65
2023-04-06T17:37:28.202Z,11.32
2023-04-06T17:39:55.386Z,13.23
2023-04-06T17:44:53.759Z,13.05
2023-04-06T17:47:20.724Z,12.68
2023-04-06T17:49:47.743Z,15.05
2023-04-06T17:52:14.428Z,14.73
2023-04-06T17:54:41.326Z,13.23
2023-04-06T17:57:08.616Z,13.73
2023-04-06T17:59:35.364Z,11.48
2023-04-06T18:02:04.176Z,12.52
2023-04-06T18:04:31.348Z,12.75
2023-04-06T18:06:58.175Z,12.35
2023-04-06T18:11:57.211Z,13.07
2023-04-06T18:14:24.278Z,14.43
2023-04-06T18:16:50.989Z,11.20
2023-04-06T18:19:17.689Z,13.10
2023-04-06T18:21:44.366Z,9.48
2023-04-06T18:24:15.150Z,14.82
2023-04-06T18:26:49.686Z,12.55
2023-04-06T18:29:16.558Z,17.05
2023-04-06T18:31:44.782Z,14.02
2023-04-06T18:34:11.511Z,12.70
2023-04-06T18:36:38.181Z,14.55
2023-04-06T18:39:05.124Z,14.23
2023-04-06T18:41:31.929Z,13.75
2023-04-06T18:43:58.615Z,12.98
2023-04-06T18:46:25.429Z,12.50
2023-04-06T18:48:52.140Z,12.95
2023-04-06T18:51:18.829Z,14.23
2023-04-06T18:53:45.558Z,12.80
2023-04-06T18:56:19.568Z,14.35
2023-04-06T18:58:49.047Z,12.02
2023-04-06T19:01:28.090Z,12.57
2023-04-06T19:03:56.813Z,13.68
2023-04-06T19:06:24.698Z,11.98
2023-04-06T19:08:51.402Z,11.88
2023-04-06T19:11:18.141Z,15.38
2023-04-06T19:13:49.983Z,14.32
2023-04-06T19:16:17.760Z,11.68
2023-04-06T19:18:45.671Z,10.32
2023-04-06T19:21:20.576Z,13.55
2023-04-06T19:23:52.251Z,15.25
2023-04-06T19:26:20.506Z,16.10
2023-04-06T19:28:47.648Z,15.13
2023-04-06T19:31:17.041Z,20.73
2023-04-06T19:33:45.412Z,15.50
2023-04-06T19:36:12.712Z,15.98
2023-04-06T19:38:39.895Z,18.00
2023-04-06T19:41:06.628Z,17.70
2023-04-06T19:43:33.595Z,15.98
2023-04-06T19:46:00.479Z,16.35
2023-04-06T19:48:27.292Z,16.20
2023-04-06T19:50:54.901Z,15.90
2023-04-06T19:53:22.512Z,16.65
2023-04-06T19:55:50.062Z,15.95
2023-04-06T19:58:16.848Z,15.50
2023-04-06T20:00:43.642Z,11.73
2023-04-06T20:03:10.681Z,14.23
2023-04-06T20:05:37.572Z,11.95
2023-04-06T20:08:04.373Z,10.52
2023-04-06T20:10:31.181Z,9.43
2023-04-06T20:13:00.519Z,9.52
2023-04-06T20:15:27.510Z,6.45
2023-04-06T20:17:54.189Z,6.47
2023-04-06T20:20:21.223Z,7.20
2023-04-06T20:22:50.157Z,5.35
2023-04-06T20:25:18.439Z,6.63
2023-04-06T20:27:48.416Z,6.97
2023-04-06T20:30:16.727Z,7.03
2023-04-06T20:32:43.867Z,7.95
2023-04-06T20:35:11.130Z,7.97
2023-04-06T20:37:37.991Z,8.65
2023-04-06T20:40:05.444Z,9.98
2023-04-06T20:42:32.363Z,11.05
2023-04-06T20:44:59.509Z,12.57
2023-04-06T20:47:27.259Z,13.45
2023-04-06T20:49:54.066Z,14.40
2023-04-06T20:52:21.005Z,14.30
2023-04-06T20:54:48.525Z,14.55
2023-04-06T20:57:15.476Z,12.63
2023-04-06T20:59:42.644Z,13.40
2023-04-06T21:02:09.516Z,12.05
2023-04-06T21:04:37.089Z,11.50
2023-04-06T21:07:05.581Z,11.00
2023-04-06T21:09:37.726Z,10.80
2023-04-06T21:12:05.926Z,10.82
2023-04-06T21:14:33.145Z,11.77
2023-04-06T21:17:00.712Z,10.98
2023-04-06T21:19:30.385Z,11.98
2023-04-06T21:21:57.192Z,12.15
2023-04-06T21:24:23.848Z,10.88
2023-04-06T21:26:50.667Z,10.00
2023-04-06T21:29:17.477Z,11.15
2023-04-06T21:31:44.221Z,11.70
2023-04-06T21:34:11.828Z,12.48
2023-04-06T21:36:39.058Z,12.27
2023-04-06T21:39:06.048Z,12.00
2023-04-06T21:41:33.413Z,11.03
2023-04-06T21:44:00.450Z,14.63
2023-04-06T21:46:27.260Z,14.20
2023-04-06T21:48:54.015Z,13.38
2023-04-06T21:51:22.577Z,14.55
2023-04-06T21:53:50.300Z,14.90
2023-04-06T21:56:22.239Z,15.13
2023-04-06T21:58:49.958Z,18.20
2023-04-06T22:01:17.701Z,15.30
2023-04-06T22:06:12.400Z,15.07
2023-04-06T22:08:39.184Z,15.43
2023-04-06T22:11:11.269Z,15.90
2023-04-06T22:13:38.509Z,15.82
2023-04-06T22:16:06.592Z,15.93
2023-04-06T22:18:34.129Z,14.68
2023-04-06T22:21:03.474Z,15.40
2023-04-06T22:23:32.220Z,13.38
2023-04-06T22:25:58.884Z,14.50
2023-04-06T22:28:26.408Z,14.25
2023-04-06T22:30:53.300Z,14.07
2023-04-06T22:33:20.104Z,15.27
2023-04-06T22:35:46.960Z,14.90
2023-04-06T22:38:13.642Z,12.93
2023-04-06T22:40:40.415Z,13.77
2023-04-06T22:43:07.203Z,12.48
2023-04-06T22:45:33.862Z,11.77
2023-04-06T22:48:00.613Z,11.40
2023-04-06T22:50:27.653Z,10.38
2023-04-06T22:52:54.524Z,11.13
2023-04-06T22:55:21.328Z,10.50
2023-04-06T22:57:48.109Z,10.95
2023-04-06T23:00:15.176Z,10.40
2023-04-06T23:02:41.962Z,10.27
2023-04-06T23:05:09.163Z,10.45
2023-04-06T23:07:36.105Z,10.73
2023-04-06T23:10:03.348Z,10.68
2023-04-06T23:12:30.371Z,10.73
2023-04-06T23:14:57.097Z,10.35
2023-04-06T23:17:24.080Z,10.35
2023-04-06T23:19:51.462Z,10.20
2023-04-06T23:22:18.220Z,11.10
2023-04-06T23:24:44.952Z,10.40
2023-04-06T23:27:11.658Z,10.55
2023-04-06T23:29:38.403Z,10.43
2023-04-06T23:32:05.531Z,10.32
2023-04-06T23:34:32.334Z,10.93
2023-04-06T23:37:02.837Z,10.90
2023-04-06T23:39:29.756Z,11.20
2023-04-06T23:41:57.799Z,11.85
2023-04-06T23:44:24.890Z,11.25
2023-04-06T23:46:51.815Z,12.10
2023-04-06T23:49:18.675Z,11.87
2023-04-06T23:51:45.373Z,12.18
2023-04-06T23:54:12.126Z,12.82
2023-04-06T23:56:38.842Z,11.93
2023-04-06T23:59:05.531Z,12.10
